Time;durP1;ratioP1;P1;durP2;ratioP2;P2;SDS_P1;SDS_P2;PMS_P1;PMS_P2;Temp;Humidity;BMP_temperature;BMP_pressure;BME280_temperature;BME280_humidity;BME280_pressure;Samples;Min_cycle;Max_cycle;Signal;HPM_P1;HPM_P2
2023/11/16 00:00:06;;;;;;;10.73;4.07;;;;;6.50;101218.00;;;;10316385;28;20273;-73
2023/11/16 00:05:16;;;;;;;12.43;4.70;;;;;6.60;101220.00;;;;10320904;28;20753;-73
2023/11/16 00:10:19;;;;;;;14.73;4.50;;;;;6.70;101216.00;;;;10315823;28;20227;-72
2023/11/16 00:15:20;;;;;;;17.83;4.27;;;;;6.80;101215.00;;;;10315319;28;20224;-73
2023/11/16 00:20:22;;;;;;;14.57;4.83;;;;;6.80;101207.00;;;;10309304;28;20259;-73
2023/11/16 00:25:23;;;;;;;13.93;4.30;;;;;6.70;101204.00;;;;10329874;28;20224;-73
2023/11/16 00:30:24;;;;;;;15.37;4.43;;;;;6.70;101194.00;;;;10334796;28;20250;-73
2023/11/16 00:35:25;;;;;;;17.57;4.70;;;;;6.70;101197.00;;;;10316796;28;20802;-73
2023/11/16 00:40:32;;;;;;;12.00;4.37;;;;;6.60;101187.00;;;;10319771;28;20792;-73
2023/11/16 00:45:33;;;;;;;12.87;3.73;;;;;6.70;101187.00;;;;10314480;28;20371;-74
2023/11/16 00:50:35;;;;;;;15.97;4.30;;;;;6.70;101199.00;;;;10323962;28;20226;-73
2023/11/16 00:55:36;;;;;;;8.23;4.10;;;;;6.60;101199.00;;;;10305784;28;20253;-73
2023/11/16 01:00:38;;;;;;;12.63;4.57;;;;;6.60;101189.00;;;;10317070;28;20223;-73
2023/11/16 01:05:39;;;;;;;11.87;3.90;;;;;6.60;101193.00;;;;10310043;28;20224;-73
2023/11/16 01:10:43;;;;;;;11.80;4.63;;;;;6.50;101190.00;;;;10319577;28;20283;-73
2023/11/16 01:15:44;;;;;;;11.87;3.87;;;;;6.50;101174.00;;;;10309887;28;20315;-73
2023/11/16 01:20:45;;;;;;;14.47;4.87;;;;;6.40;101191.00;;;;10315155;28;20250;-73
2023/11/16 01:25:52;;;;;;;14.43;4.17;;;;;6.40;101183.00;;;;10314799;28;20232;-72
2023/11/16 01:30:53;;;;;;;10.57;3.17;;;;;6.50;101176.00;;;;10296313;28;20545;-73
2023/11/16 01:35:55;;;;;;;11.87;4.00;;;;;6.50;101174.00;;;;10313560;28;20231;-72
2023/11/16 01:40:57;;;;;;;11.63;3.70;;;;;6.60;101156.00;;;;10311052;28;20231;-73
2023/11/16 01:46:00;;;;;;;12.37;3.53;;;;;6.70;101179.00;;;;10311385;28;20235;-73
2023/11/16 01:51:05;;;;;;;16.03;3.57;;;;;6.70;101165.00;;;;10328198;28;20234;-72
2023/11/16 01:56:08;;;;;;;11.73;3.77;;;;;6.70;101163.00;;;;10321207;28;20220;-72
2023/11/16 02:01:09;;;;;;;13.07;4.00;;;;;6.60;101172.00;;;;10313427;28;20228;-73
2023/11/16 02:06:10;;;;;;;12.90;4.13;;;;;6.60;101160.00;;;;10310559;28;20235;-73
2023/11/16 02:11:11;;;;;;;12.53;3.40;;;;;6.60;101169.00;;;;10313479;28;20231;-72
2023/11/16 02:16:13;;;;;;;13.67;3.83;;;;;6.60;101176.00;;;;10295018;28;20227;-73
2023/11/16 02:21:15;;;;;;;12.90;4.63;;;;;6.60;101177.00;;;;10313128;28;20852;-72
2023/11/16 02:26:18;;;;;;;15.23;4.43;;;;;6.70;101164.00;;;;10308361;28;20634;-72
2023/11/16 02:31:19;;;;;;;11.73;3.70;;;;;6.70;101155.00;;;;10324215;28;20219;-72
2023/11/16 02:36:20;;;;;;;15.93;3.47;;;;;6.80;101147.00;;;;10310776;28;20237;-74
2023/11/16 02:41:22;;;;;;;16.23;3.80;;;;;6.80;101130.00;;;;10314151;28;20220;-74
2023/11/16 02:46:23;;;;;;;16.47;3.20;;;;;6.80;101119.00;;;;10295253;28;20228;-74
2023/11/16 02:51:25;;;;;;;12.87;3.07;;;;;6.70;101123.00;;;;10333227;28;20223;-74
2023/11/16 02:56:26;;;;;;;13.10;3.63;;;;;6.70;101112.00;;;;10326238;28;20681;-74
2023/11/16 03:01:28;;;;;;;11.70;3.83;;;;;6.70;101114.00;;;;10328197;28;20216;-74
2023/11/16 03:06:30;;;;;;;12.63;3.87;;;;;6.60;101120.00;;;;10344797;28;20235;-74
2023/11/16 03:11:32;;;;;;;9.03;3.50;;;;;6.60;101112.00;;;;10319208;28;20596;-74
2023/11/16 03:16:39;;;;;;;13.80;3.77;;;;;6.50;101117.00;;;;10315877;28;20262;-74
2023/11/16 03:21:40;;;;;;;12.97;3.00;;;;;6.40;101113.00;;;;10320591;28;20285;-74
2023/11/16 03:26:41;;;;;;;9.87;3.43;;;;;6.40;101105.00;;;;10318020;28;20561;-74
2023/11/16 03:31:44;;;;;;;7.90;3.63;;;;;6.40;101089.00;;;;10326765;28;20223;-74
2023/11/16 03:36:46;;;;;;;10.03;3.20;;;;;6.40;101103.00;;;;10335350;28;20239;-74
2023/11/16 03:41:48;;;;;;;8.10;3.30;;;;;6.40;101088.00;;;;10323505;28;20314;-74
2023/11/16 03:46:49;;;;;;;11.67;3.77;;;;;6.40;101075.00;;;;10322626;28;20259;-72
2023/11/16 03:51:50;;;;;;;8.83;3.70;;;;;6.40;101080.00;;;;10313876;28;20311;-73
2023/11/16 03:56:55;;;;;;;11.33;4.37;;;;;6.40;101087.00;;;;10311231;28;20661;-72
2023/11/16 04:01:56;;;;;;;10.30;3.57;;;;;6.40;101084.00;;;;10311980;28;20231;-73
2023/11/16 04:06:58;;;;;;;16.50;4.70;;;;;6.40;101079.00;;;;10310411;28;20228;-72
2023/11/16 04:12:00;;;;;;;12.57;3.83;;;;;6.40;101079.00;;;;10308560;28;20220;-72
2023/11/16 04:17:03;;;;;;;11.20;3.80;;;;;6.40;101088.00;;;;10313151;28;20228;-73
2023/11/16 04:22:08;;;;;;;17.03;3.93;;;;;6.40;101080.00;;;;10292723;28;20239;-73
2023/11/16 04:27:09;;;;;;;10.53;3.40;;;;;6.30;101074.00;;;;10311868;28;20311;-73
2023/11/16 04:32:11;;;;;;;11.30;3.83;;;;;6.30;101063.00;;;;10294504;28;20220;-72
2023/11/16 04:37:13;;;;;;;12.77;4.00;;;;;6.30;101042.00;;;;10313892;28;20231;-73
2023/11/16 04:42:14;;;;;;;8.57;3.73;;;;;6.20;101040.00;;;;10306696;28;20997;-73
2023/11/16 04:47:15;;;;;;;18.77;4.57;;;;;6.20;101039.00;;;;10317413;28;20223;-73
2023/11/16 04:52:17;;;;;;;18.93;4.40;;;;;6.20;101030.00;;;;10321802;28;20363;-72
2023/11/16 04:57:18;;;;;;;14.53;4.50;;;;;6.20;101027.00;;;;10313952;28;20307;-73
2023/11/16 05:02:20;;;;;;;12.10;3.53;;;;;6.20;101030.00;;;;10311271;28;20792;-73
2023/11/16 05:07:21;;;;;;;16.87;4.03;;;;;6.20;101046.00;;;;10307135;28;20303;-73
2023/11/16 05:12:22;;;;;;;15.73;3.67;;;;;6.20;101040.00;;;;10311532;28;20228;-73
2023/11/16 05:17:23;;;;;;;10.63;3.60;;;;;6.10;101047.00;;;;10311463;28;20976;-74
2023/11/16 05:22:24;;;;;;;13.60;3.37;;;;;6.00;101041.00;;;;10314746;28;20274;-73
2023/11/16 05:27:27;;;;;;;8.73;3.60;;;;;5.90;101017.00;;;;10311899;28;20769;-73
2023/11/16 05:32:28;;;;;;;11.70;2.97;;;;;5.90;101013.00;;;;10302083;28;20277;-74
2023/11/16 05:37:29;;;;;;;10.27;3.50;;;;;5.80;101006.00;;;;10310182;28;20751;-73
2023/11/16 05:42:30;;;;;;;15.97;3.63;;;;;5.70;100996.00;;;;10309526;28;20299;-73
2023/11/16 05:47:32;;;;;;;11.20;3.07;;;;;5.70;100995.00;;;;10306119;28;20228;-73
2023/11/16 05:52:34;;;;;;;24.63;4.63;;;;;5.60;100968.00;;;;10313315;28;20227;-73
2023/11/16 05:57:35;;;;;;;15.37;3.70;;;;;5.50;100968.00;;;;10323617;28;20224;-73
2023/11/16 06:02:38;;;;;;;12.47;3.87;;;;;5.40;100955.00;;;;10303639;28;20224;-74
2023/11/16 06:07:40;;;;;;;16.73;4.00;;;;;5.40;100953.00;;;;10306933;28;20238;-76
2023/11/16 06:12:42;;;;;;;16.50;3.60;;;;;5.30;100948.00;;;;10316350;28;20259;-76
2023/11/16 06:17:43;;;;;;;13.83;4.17;;;;;5.20;100952.00;;;;10312229;28;20228;-76
2023/11/16 06:22:46;;;;;;;19.00;4.13;;;;;5.10;100934.00;;;;10318362;28;20281;-76
2023/11/16 06:27:48;;;;;;;11.43;3.80;;;;;5.10;100922.00;;;;10321286;28;20232;-76
2023/11/16 06:32:49;;;;;;;17.20;3.97;;;;;5.00;100914.00;;;;10315757;28;20278;-76
2023/11/16 06:37:51;;;;;;;18.47;5.10;;;;;5.00;100900.00;;;;10323569;28;20224;-75
2023/11/16 06:42:52;;;;;;;26.00;5.90;;;;;5.00;100891.00;;;;10319514;28;20266;-76
2023/11/16 06:47:55;;;;;;;30.10;8.40;;;;;5.00;100879.00;;;;10305981;28;20873;-76
2023/11/16 06:52:56;;;;;;;29.90;9.87;;;;;5.00;100869.00;;;;10307130;28;20223;-76
2023/11/16 06:57:57;;;;;;;29.10;8.87;;;;;5.00;100861.00;;;;10317347;28;20314;-76
2023/11/16 07:02:59;;;;;;;20.70;6.37;;;;;5.00;100856.00;;;;10311651;28;20224;-76
2023/11/16 07:08:02;;;;;;;15.73;5.80;;;;;5.00;100846.00;;;;10319210;28;20239;-76
2023/11/16 07:13:03;;;;;;;14.73;5.27;;;;;5.10;100827.00;;;;10316564;28;20220;-76
2023/11/16 07:18:06;;;;;;;11.47;4.43;;;;;5.10;100823.00;;;;10318465;28;20234;-76
2023/11/16 07:23:08;;;;;;;26.53;5.53;;;;;5.20;100816.00;;;;10319874;28;20228;-76
2023/11/16 07:28:10;;;;;;;11.83;4.10;;;;;5.30;100807.00;;;;10295101;28;20321;-76
2023/11/16 07:33:14;;;;;;;20.80;5.47;;;;;5.50;100814.00;;;;10326175;28;20228;-76
2023/11/16 07:38:16;;;;;;;13.10;5.43;;;;;5.70;100806.00;;;;10266525;28;20274;-76
2023/11/16 07:43:17;;;;;;;16.00;6.20;;;;;5.90;100809.00;;;;10300664;28;20232;-76
2023/11/16 07:48:19;;;;;;;19.17;5.67;;;;;6.00;100785.00;;;;10308781;28;20319;-76
2023/11/16 07:53:24;;;;;;;15.17;5.60;;;;;6.10;100781.00;;;;10322190;28;22201;-76
2023/11/16 07:58:28;;;;;;;16.23;5.57;;;;;6.10;100781.00;;;;10331077;28;20254;-76
2023/11/16 08:03:42;;;;;;;17.67;6.20;;;;;6.10;100784.00;;;;10318540;28;21664;-76
2023/11/16 08:08:45;;;;;;;22.20;6.63;;;;;6.00;100777.00;;;;10315943;28;20358;-76
2023/11/16 08:13:47;;;;;;;20.63;8.10;;;;;6.00;100770.00;;;;10316806;28;20231;-76
2023/11/16 08:18:53;;;;;;;18.70;7.43;;;;;6.00;100777.00;;;;10316081;28;20753;-76
2023/11/16 08:23:56;;;;;;;16.63;6.87;;;;;6.00;100773.00;;;;10307368;28;20220;-73
2023/11/16 08:28:57;;;;;;;14.57;6.70;;;;;6.00;100767.00;;;;10322682;28;20976;-73
2023/11/16 08:33:58;;;;;;;30.90;9.10;;;;;6.10;100763.00;;;;10312411;28;20319;-72
2023/11/16 08:38:59;;;;;;;21.67;8.30;;;;;6.20;100765.00;;;;10310306;28;20231;-73
2023/11/16 08:44:08;;;;;;;17.00;7.87;;;;;6.30;100765.00;;;;10307606;28;20852;-72
2023/11/16 08:49:10;;;;;;;21.40;6.77;;;;;6.40;100758.00;;;;10292334;28;20312;-72
2023/11/16 08:54:11;;;;;;;20.63;7.50;;;;;6.60;100746.00;;;;10317759;28;20227;-72
2023/11/16 08:59:12;;;;;;;16.67;6.67;;;;;6.70;100747.00;;;;10299472;28;20223;-72
2023/11/16 09:04:15;;;;;;;18.60;8.73;;;;;6.80;100742.00;;;;10313412;28;20239;-72
2023/11/16 09:09:35;;;;;;;17.03;7.13;;;;;6.80;100735.00;;;;10303195;28;20723;-72
2023/11/16 09:14:37;;;;;;;19.70;8.73;;;;;6.80;100714.00;;;;10309283;28;20531;-72
2023/11/16 09:19:38;;;;;;;17.27;7.90;;;;;6.80;100700.00;;;;10307100;28;20270;-73
2023/11/16 09:24:39;;;;;;;15.03;5.70;;;;;6.90;100686.00;;;;10304833;28;20234;-72
2023/11/16 09:29:41;;;;;;;18.03;5.83;;;;;6.90;100680.00;;;;10328549;28;20224;-73
2023/11/16 09:34:43;;;;;;;18.67;7.20;;;;;7.00;100672.00;;;;10318228;28;20259;-73
2023/11/16 09:39:44;;;;;;;27.50;13.40;;;;;7.20;100681.00;;;;10286072;28;20851;-73
2023/11/16 09:44:53;;;;;;;13.73;6.13;;;;;7.60;100693.00;;;;10293731;28;20231;-73
2023/11/16 09:49:56;;;;;;;16.07;6.03;;;;;8.10;100710.00;;;;10307530;28;20227;-73
2023/11/16 09:55:00;;;;;;;19.63;7.40;;;;;8.20;100713.00;;;;10318665;28;20231;-73
2023/11/16 10:00:13;;;;;;;15.77;6.23;;;;;8.30;100713.00;;;;10325703;28;20270;-73
2023/11/16 10:05:29;;;;;;;17.53;6.97;;;;;8.40;100729.00;;;;10306475;28;20315;-73
2023/11/16 10:10:33;;;;;;;15.60;7.23;;;;;8.30;100728.00;;;;10320851;28;20318;-73
2023/11/16 10:15:36;;;;;;;18.67;9.03;;;;;8.10;100722.00;;;;10310081;28;20303;-73
2023/11/16 10:20:39;;;;;;;26.63;9.90;;;;;8.00;100705.00;;;;10321655;28;20234;-73
2023/11/16 10:25:40;;;;;;;16.13;7.10;;;;;8.00;100686.00;;;;10312153;28;20311;-74
2023/11/16 10:30:50;;;;;;;17.70;7.53;;;;;8.00;100674.00;;;;10304065;28;20711;-73
2023/11/16 10:35:55;;;;;;;12.97;6.50;;;;;7.90;100646.00;;;;10307058;28;20220;-73
2023/11/16 10:40:57;;;;;;;15.23;6.97;;;;;7.80;100627.00;;;;10305782;28;20298;-73
2023/11/16 10:45:59;;;;;;;13.87;7.10;;;;;7.70;100609.00;;;;10313661;28;20309;-74
2023/11/16 10:51:01;;;;;;;19.43;8.23;;;;;7.80;100607.00;;;;10306350;28;20228;-74
2023/11/16 10:56:09;;;;;;;20.20;8.37;;;;;7.80;100594.00;;;;10312628;28;20211;-74
2023/11/16 11:01:17;;;;;;;14.73;7.13;;;;;7.90;100564.00;;;;10327078;28;20248;-74
2023/11/16 11:06:21;;;;;;;19.17;7.00;;;;;8.00;100555.00;;;;10294957;28;20801;-74
2023/11/16 11:11:27;;;;;;;15.57;7.00;;;;;8.00;100547.00;;;;10319696;28;20275;-74
2023/11/16 11:16:29;;;;;;;17.47;7.40;;;;;8.10;100529.00;;;;10319137;28;20227;-74
2023/11/16 11:21:31;;;;;;;23.13;10.20;;;;;8.20;100513.00;;;;10318840;28;20282;-74
2023/11/16 11:26:43;;;;;;;26.20;7.93;;;;;8.30;100505.00;;;;10314811;28;20235;-74
2023/11/16 11:32:03;;;;;;;18.37;7.93;;;;;8.40;100485.00;;;;10320289;28;20323;-73
2023/11/16 11:37:10;;;;;;;23.80;9.37;;;;;8.40;100468.00;;;;10317609;28;20251;-74
2023/11/16 11:42:16;;;;;;;23.53;8.90;;;;;8.50;100467.00;;;;10322559;28;20216;-74
2023/11/16 11:47:24;;;;;;;48.83;28.50;;;;;8.70;100462.00;;;;10319877;28;20793;-74
2023/11/16 11:52:26;;;;;;;43.47;15.97;;;;;8.70;100453.00;;;;10332846;28;20235;-74
2023/11/16 11:57:30;;;;;;;18.73;9.10;;;;;8.50;100437.00;;;;10320816;28;20227;-76
2023/11/16 12:02:40;;;;;;;21.23;9.43;;;;;8.30;100429.00;;;;10318103;28;20216;-76
2023/11/16 12:07:42;;;;;;;21.83;8.20;;;;;8.10;100415.00;;;;10313451;28;20322;-76
2023/11/16 12:12:45;;;;;;;23.27;7.93;;;;;8.10;100414.00;;;;10313931;28;20220;-76
2023/11/16 12:17:46;;;;;;;19.60;9.47;;;;;8.10;100408.00;;;;10312317;28;20228;-76
2023/11/16 12:22:50;;;;;;;17.83;9.50;;;;;8.00;100398.00;;;;10312361;28;20762;-76
2023/11/16 12:27:51;;;;;;;23.23;9.90;;;;;8.10;100401.00;;;;10311058;28;20865;-76
2023/11/16 12:32:55;;;;;;;22.13;8.87;;;;;8.10;100393.00;;;;10330650;28;20785;-76
2023/11/16 12:37:57;;;;;;;22.90;9.27;;;;;8.20;100381.00;;;;10318499;28;20252;-76
2023/11/16 12:42:59;;;;;;;22.07;9.00;;;;;8.40;100377.00;;;;10314626;28;20219;-76
2023/11/16 12:48:06;;;;;;;15.57;8.47;;;;;8.40;100375.00;;;;10310433;28;20232;-76
2023/11/16 12:53:08;;;;;;;15.90;10.20;;;;;8.50;100379.00;;;;10313811;28;20224;-76
2023/11/16 12:58:21;;;;;;;14.90;8.83;;;;;8.60;100366.00;;;;10314586;28;20366;-76
2023/11/16 13:03:22;;;;;;;25.80;8.60;;;;;8.70;100342.00;;;;10313673;28;20224;-76
2023/11/16 13:08:38;;;;;;;22.40;8.93;;;;;8.70;100340.00;;;;10318473;28;20237;-73
2023/11/16 13:13:39;;;;;;;16.17;9.33;;;;;8.80;100343.00;;;;10311508;28;20234;-73
2023/11/16 13:18:41;;;;;;;18.83;8.77;;;;;8.80;100337.00;;;;10313401;28;20712;-73
2023/11/16 13:23:49;;;;;;;18.60;10.33;;;;;8.90;100335.00;;;;10306916;28;20259;-73
2023/11/16 13:28:53;;;;;;;18.67;9.30;;;;;8.80;100332.00;;;;10310197;28;20242;-73
2023/11/16 13:33:55;;;;;;;18.57;9.87;;;;;8.80;100335.00;;;;10319780;28;20873;-74
2023/11/16 13:39:07;;;;;;;17.97;8.67;;;;;8.80;100335.00;;;;10315074;28;20281;-73
2023/11/16 13:44:12;;;;;;;23.43;9.40;;;;;8.80;100330.00;;;;10311266;28;20220;-73
2023/11/16 13:49:13;;;;;;;17.77;9.23;;;;;8.70;100342.00;;;;10314920;28;20282;-73
2023/11/16 13:54:15;;;;;;;23.07;9.40;;;;;8.60;100335.00;;;;10308785;28;20309;-73
2023/11/16 13:59:16;;;;;;;21.50;8.87;;;;;8.50;100339.00;;;;10317002;28;20253;-73
2023/11/16 14:04:23;;;;;;;21.37;8.83;;;;;8.50;100349.00;;;;10306697;28;20220;-73
2023/11/16 14:09:27;;;;;;;18.70;7.97;;;;;8.50;100357.00;;;;10306838;28;20610;-73
2023/11/16 14:14:28;;;;;;;18.53;8.40;;;;;8.50;100351.00;;;;10311253;28;20219;-73
2023/11/16 14:19:34;;;;;;;20.80;8.87;;;;;8.50;100368.00;;;;10313239;28;20227;-73
2023/11/16 14:24:36;;;;;;;24.93;8.50;;;;;8.50;100372.00;;;;10323129;28;20681;-74
2023/11/16 14:29:43;;;;;;;19.30;7.97;;;;;8.50;100366.00;;;;10308630;28;21047;-74
2023/11/16 14:34:44;;;;;;;17.17;8.10;;;;;8.50;100371.00;;;;10314949;28;20334;-73
2023/11/16 14:39:45;;;;;;;22.20;8.53;;;;;8.50;100365.00;;;;10306318;28;20224;-73
2023/11/16 14:44:51;;;;;;;24.63;8.50;;;;;8.50;100370.00;;;;10335591;28;20224;-73
2023/11/16 14:49:53;;;;;;;19.80;7.83;;;;;8.50;100381.00;;;;10317028;28;20239;-74
2023/11/16 14:55:00;;;;;;;23.53;9.53;;;;;8.40;100367.00;;;;10310692;28;20311;-73
2023/11/16 15:00:01;;;;;;;24.60;9.00;;;;;8.40;100374.00;;;;10316906;28;20319;-73
2023/11/16 15:05:19;;;;;;;19.13;8.47;;;;;8.40;100380.00;;;;10322530;28;20242;-73
2023/11/16 15:10:32;;;;;;;23.47;8.40;;;;;8.40;100378.00;;;;10317917;28;20318;-73
2023/11/16 15:15:33;;;;;;;19.90;8.27;;;;;8.30;100386.00;;;;10312138;28;20618;-74
2023/11/16 15:20:37;;;;;;;18.57;8.00;;;;;8.20;100389.00;;;;10313830;28;20220;-73
2023/11/16 15:25:41;;;;;;;23.43;8.60;;;;;8.20;100399.00;;;;10311362;28;20239;-77
2023/11/16 15:30:50;;;;;;;24.67;8.27;;;;;8.10;100392.00;;;;10298577;28;20754;-76
2023/11/16 15:35:51;;;;;;;20.87;9.13;;;;;8.10;100396.00;;;;10339471;28;20439;-76
2023/11/16 15:40:58;;;;;;;22.73;10.87;;;;;8.00;100395.00;;;;10319309;28;20878;-76
2023/11/16 15:45:59;;;;;;;24.03;10.40;;;;;8.00;100405.00;;;;10324254;28;20277;-76
2023/11/16 15:51:01;;;;;;;21.27;9.60;;;;;8.00;100404.00;;;;10307702;28;20785;-77
2023/11/16 15:56:09;;;;;;;20.60;11.43;;;;;7.90;100398.00;;;;10316040;28;20235;-76
2023/11/16 16:01:10;;;;;;;28.37;10.30;;;;;7.90;100396.00;;;;10340745;28;20223;-76
2023/11/16 16:06:12;;;;;;;23.40;11.00;;;;;7.90;100401.00;;;;10310524;28;20224;-76
2023/11/16 16:11:13;;;;;;;25.57;10.87;;;;;7.80;100402.00;;;;10323018;28;20223;-76
2023/11/16 16:16:15;;;;;;;20.17;11.17;;;;;7.80;100416.00;;;;10320261;28;20299;-76
2023/11/16 16:21:17;;;;;;;24.97;10.50;;;;;7.70;100425.00;;;;10316041;28;20227;-76
2023/11/16 16:26:18;;;;;;;30.73;11.83;;;;;7.70;100436.00;;;;10313043;28;20232;-76
2023/11/16 16:31:22;;;;;;;21.60;10.43;;;;;7.70;100452.00;;;;10321282;28;20266;-76
2023/11/16 16:36:29;;;;;;;23.30;10.67;;;;;7.60;100465.00;;;;10312925;28;20223;-71
2023/11/16 16:41:33;;;;;;;23.17;10.00;;;;;7.60;100474.00;;;;10307996;28;20221;-71
2023/11/16 16:46:40;;;;;;;22.03;9.73;;;;;7.60;100489.00;;;;10317161;28;20216;-72
2023/11/16 16:51:43;;;;;;;24.17;10.60;;;;;7.50;100496.00;;;;10329309;28;20319;-74
2023/11/16 16:56:44;;;;;;;28.57;12.00;;;;;7.50;100499.00;;;;10313231;28;20237;-72
2023/11/16 17:01:48;;;;;;;23.13;11.07;;;;;7.50;100520.00;;;;10295497;28;20228;-72
2023/11/16 17:06:54;;;;;;;23.37;10.97;;;;;7.50;100533.00;;;;10309795;28;20228;-73
2023/11/16 17:11:56;;;;;;;20.10;10.07;;;;;7.50;100537.00;;;;10304389;28;20223;-71
2023/11/16 17:17:00;;;;;;;24.03;11.40;;;;;7.50;100537.00;;;;10310277;28;20234;-71
2023/11/16 17:22:03;;;;;;;28.00;13.47;;;;;7.50;100526.00;;;;10312315;28;20235;-72
2023/11/16 17:27:05;;;;;;;16.90;9.50;;;;;7.50;100533.00;;;;10297614;28;20560;-71
2023/11/16 17:32:10;;;;;;;22.00;9.20;;;;;7.50;100538.00;;;;10308549;28;20230;-72
2023/11/16 17:37:16;;;;;;;24.03;9.40;;;;;7.50;100549.00;;;;10315337;28;20273;-71
2023/11/16 17:42:17;;;;;;;18.53;9.70;;;;;7.40;100557.00;;;;10300261;28;20305;-73
2023/11/16 17:47:19;;;;;;;25.73;11.07;;;;;7.40;100575.00;;;;10306001;28;20323;-73
2023/11/16 17:52:21;;;;;;;22.73;11.03;;;;;7.40;100593.00;;;;10307644;28;20228;-73
2023/11/16 17:57:22;;;;;;;24.97;11.57;;;;;7.30;100596.00;;;;10309747;28;20310;-73
2023/11/16 18:02:25;;;;;;;25.30;12.90;;;;;7.30;100592.00;;;;10306809;28;20281;-73
2023/11/16 18:07:28;;;;;;;22.17;12.27;;;;;7.30;100598.00;;;;10311658;28;20249;-73
2023/11/16 18:12:29;;;;;;;38.30;14.43;;;;;7.30;100600.00;;;;10314031;28;20335;-73
2023/11/16 18:17:30;;;;;;;28.70;14.13;;;;;7.20;100603.00;;;;10323952;28;20226;-73
2023/11/16 18:22:34;;;;;;;25.50;14.73;;;;;7.20;100606.00;;;;10321225;28;20228;-73
2023/11/16 18:27:44;;;;;;;30.80;15.23;;;;;7.20;100619.00;;;;10315499;28;20235;-73
2023/11/16 18:32:50;;;;;;;27.97;15.70;;;;;7.30;100626.00;;;;10312667;28;20220;-73
2023/11/16 18:37:52;;;;;;;33.10;16.83;;;;;7.20;100652.00;;;;10325701;28;20228;-73
2023/11/16 18:42:53;;;;;;;31.60;16.90;;;;;7.20;100660.00;;;;10314553;28;20381;-73
2023/11/16 18:47:54;;;;;;;42.90;21.00;;;;;7.20;100670.00;;;;10317657;28;20223;-73
2023/11/16 18:52:58;;;;;;;46.37;25.90;;;;;7.20;100679.00;;;;10318002;28;20300;-73
2023/11/16 18:57:59;;;;;;;52.13;28.70;;;;;7.20;100678.00;;;;10314485;28;20502;-73
2023/11/16 19:03:15;;;;;;;43.93;24.97;;;;;7.10;100695.00;;;;10324614;28;20224;-73
2023/11/16 19:08:21;;;;;;;35.50;23.17;;;;;7.10;100704.00;;;;10324001;28;20236;-79
2023/11/16 19:13:28;;;;;;;36.73;22.63;;;;;7.10;100709.00;;;;10318067;28;20263;-79
2023/11/16 19:18:29;;;;;;;38.87;21.00;;;;;7.20;100717.00;;;;10318622;28;20235;-80
2023/11/16 19:23:32;;;;;;;38.20;22.10;;;;;7.20;100723.00;;;;10317868;28;20247;-78
2023/11/16 19:28:34;;;;;;;40.20;22.80;;;;;7.20;100744.00;;;;10322702;28;20259;-78
2023/11/16 19:33:37;;;;;;;38.97;22.73;;;;;7.20;100742.00;;;;10317058;28;20925;-79
2023/11/16 19:38:39;;;;;;;37.97;23.87;;;;;7.20;100731.00;;;;10315775;28;20231;-79
2023/11/16 19:43:42;;;;;;;41.20;24.87;;;;;7.10;100737.00;;;;10281714;28;20228;-79
2023/11/16 19:48:43;;;;;;;53.00;26.00;;;;;7.10;100738.00;;;;10300413;28;20240;-78
2023/11/16 19:53:47;;;;;;;39.67;25.20;;;;;7.10;100743.00;;;;10320666;28;20228;-78
2023/11/16 19:58:49;;;;;;;55.93;26.70;;;;;7.10;100748.00;;;;10329300;28;20733;-79
2023/11/16 20:03:51;;;;;;;46.27;25.23;;;;;7.10;100751.00;;;;10323169;28;20219;-79
2023/11/16 20:08:52;;;;;;;42.63;26.03;;;;;7.10;100760.00;;;;10312236;28;20243;-79
2023/11/16 20:13:55;;;;;;;45.40;27.57;;;;;7.10;100766.00;;;;10321013;28;20254;-75
2023/11/16 20:18:57;;;;;;;44.23;26.97;;;;;7.10;100775.00;;;;10314462;28;20224;-75
2023/11/16 20:23:58;;;;;;;43.13;25.23;;;;;7.00;100780.00;;;;10316476;28;20223;-75
2023/11/16 20:29:04;;;;;;;49.00;28.67;;;;;7.00;100789.00;;;;10318069;28;20287;-75
2023/11/16 20:34:05;;;;;;;50.37;27.77;;;;;7.10;100804.00;;;;10313071;28;20251;-74
2023/11/16 20:39:08;;;;;;;49.20;29.73;;;;;7.10;100809.00;;;;10298561;28;20227;-75
2023/11/16 20:44:09;;;;;;;53.33;31.43;;;;;7.10;100813.00;;;;10309330;28;20267;-75
2023/11/16 20:49:11;;;;;;;49.37;29.67;;;;;7.10;100833.00;;;;10316139;28;20321;-75
2023/11/16 20:54:12;;;;;;;49.53;31.57;;;;;7.10;100837.00;;;;10316708;28;20224;-74
2023/11/16 20:59:14;;;;;;;50.67;28.07;;;;;7.10;100843.00;;;;10311884;28;20551;-75
2023/11/16 21:04:15;;;;;;;49.43;29.73;;;;;7.20;100853.00;;;;10316549;28;20551;-74
2023/11/16 21:09:17;;;;;;;44.43;27.43;;;;;7.20;100857.00;;;;10315249;28;20593;-74
2023/11/16 21:14:18;;;;;;;48.63;29.47;;;;;7.20;100867.00;;;;10279064;28;20223;-75
2023/11/16 21:19:19;;;;;;;48.23;29.80;;;;;7.20;100866.00;;;;10307149;28;20224;-75
2023/11/16 21:24:21;;;;;;;47.27;30.03;;;;;7.20;100877.00;;;;10309620;28;20322;-76
2023/11/16 21:29:22;;;;;;;50.83;31.37;;;;;7.20;100888.00;;;;10317644;28;20231;-77
2023/11/16 21:34:23;;;;;;;48.47;29.87;;;;;7.20;100890.00;;;;10308217;28;20228;-76
2023/11/16 21:39:24;;;;;;;51.63;31.60;;;;;7.20;100902.00;;;;10314761;28;20633;-76
2023/11/16 21:44:26;;;;;;;58.17;32.77;;;;;7.20;100914.00;;;;10307749;28;20213;-76
2023/11/16 21:49:27;;;;;;;54.23;30.53;;;;;7.20;100921.00;;;;10315603;28;20314;-76
2023/11/16 21:54:28;;;;;;;52.07;30.03;;;;;7.20;100914.00;;;;10313176;28;20222;-76
2023/11/16 21:59:30;;;;;;;47.50;29.33;;;;;7.20;100923.00;;;;10300875;28;20220;-76
2023/11/16 22:04:31;;;;;;;49.23;29.63;;;;;7.10;100946.00;;;;10309439;28;21047;-76
2023/11/16 22:09:33;;;;;;;46.10;29.37;;;;;7.10;100962.00;;;;10295556;28;20270;-76
2023/11/16 22:14:34;;;;;;;50.37;28.77;;;;;7.10;100968.00;;;;10318033;28;20223;-76
2023/11/16 22:19:35;;;;;;;51.40;30.27;;;;;7.10;100972.00;;;;10305413;28;20212;-76
2023/11/16 22:24:37;;;;;;;57.47;32.87;;;;;7.20;100984.00;;;;10309362;28;20259;-76
2023/11/16 22:29:38;;;;;;;52.63;31.80;;;;;7.20;100989.00;;;;10291393;28;20258;-76
2023/11/16 22:34:40;;;;;;;56.67;31.90;;;;;7.20;100992.00;;;;10309446;28;20254;-76
2023/11/16 22:39:41;;;;;;;62.47;35.37;;;;;7.20;101000.00;;;;10311225;28;20760;-76
2023/11/16 22:44:42;;;;;;;58.97;36.40;;;;;7.20;101011.00;;;;10314952;28;20644;-76
2023/11/16 22:49:43;;;;;;;57.87;36.93;;;;;7.20;101017.00;;;;10292834;28;20358;-76
2023/11/16 22:54:44;;;;;;;64.83;36.77;;;;;7.20;101026.00;;;;10311766;28;20244;-76
2023/11/16 22:59:45;;;;;;;53.33;36.03;;;;;7.20;101026.00;;;;10294101;28;20259;-76
2023/11/16 23:04:49;;;;;;;61.83;35.53;;;;;7.20;101032.00;;;;10319268;28;20575;-76
2023/11/16 23:09:50;;;;;;;48.00;34.33;;;;;7.20;101045.00;;;;10296066;28;20766;-76
2023/11/16 23:14:52;;;;;;;47.53;32.93;;;;;7.10;101044.00;;;;10299918;28;20243;-76
2023/11/16 23:19:53;;;;;;;50.03;33.20;;;;;7.10;101064.00;;;;10326054;28;20230;-76
2023/11/16 23:24:54;;;;;;;49.73;32.00;;;;;7.10;101059.00;;;;10323480;28;20318;-76
2023/11/16 23:29:55;;;;;;;62.37;35.00;;;;;7.10;101069.00;;;;10319787;28;20274;-76
2023/11/16 23:34:56;;;;;;;54.07;33.43;;;;;7.20;101072.00;;;;10325814;28;20228;-76
2023/11/16 23:40:00;;;;;;;51.40;32.63;;;;;7.20;101087.00;;;;10313321;28;20223;-76
2023/11/16 23:45:02;;;;;;;59.90;34.43;;;;;7.20;101078.00;;;;10315751;28;20258;-74
2023/11/16 23:50:04;;;;;;;61.20;34.07;;;;;7.20;101087.00;;;;10319186;28;20284;-74
2023/11/16 23:55:08;;;;;;;61.77;34.60;;;;;7.20;101095.00;;;;10316698;28;20219;-74
